• METAR

    LHBP Budapest Liszt Ferenc repülőtér METAR

    LHBP 031609Z 24010KT 5000 RA BR BKN004 OVC012 03/03 Q1015 NOSIG

    QNH légnyomás:1015hpa
    Hőmérséklet/temperature: 3°C
    Harmatpont/Dew Point Temp: 3°C

    LHDC Debreceni repülőtér METAR

    LHDC 031545Z AUTO 20010KT 3300 -SN OVC003 M00/M00 Q1016 TEMPO 3000 SN

    QNH légnyomás:1016hpa
    Hőmérskélet/temperature: 0°C
    Harmatpont/Dew Point Temp: 0°C

    LHPR Győr-pér repülőtér METAR

    LHPR 031545Z AUTO 26014KT 9999 RA OVC014 //////TCU 05/03 Q1016 TEMPO 5000 SHRA

    QNH légnyomás:1016hpa
    Hőmérskélet/temperature: 5°C
    Harmatpont/Dew Point Temp: 3°C

    lhsm Sármellék repülőtér METAR

    LHSM 031545Z AUTO 21003KT 170V250 9999 -RA NSC 07/02 Q1017 NOSIG

    QNH légnyomás:1017hpa
    Hőmérskélet/temperature: 7°C
    Harmatpont/Dew Point Temp: 2°C

    lhpp Pécs-pogány repülőtér METAR

    LHPP 031545Z AUTO 23004KT CAVOK 06/02 Q1018

    QNH légnyomás:1018hpa
    Hőmérskélet/temperature: 6°C
    Harmatpont/Dew Point Temp: 2°C

    LHKE Kecskemét repülőtér METAR

    LHKE 031545Z 23008KT 200V260 8000 -RA BKN007 OVC023 03/02 Q1017 NOSIG RMK GRN

    QNH légnyomás:1017hpa
    Hőmérskélet/temperature: 3°C
    Harmatpont/Dew Point Temp: 2°C

    LHSN Szolnok repülőtér METAR

    LHSN 031545Z 21012KT 7000 -RA BKN007 OVC016 02/01 Q1016 RESN BECMG BKN010 OVC020 RMK GRN

    QNH légnyomás:1016hpa
    Hőmérskélet/temperature: 2°C
    Harmatpont/Dew Point Temp: 1°C

    LHUD szeged repülőtér METAR

    LHUD 032345Z 35004KT CAVOK 18/13 Q1019

    QNH légnyomás:1019hpa
    Hőmérskélet/temperature: 18°C
    Harmatpont/Dew Point Temp: 13°C

  • TÉRKÉPEK

    Felhőkép

    Széltérkép

    Hőtérkép

    radarkép

    map

    map

  • Műholdképek

    Magyarország műholdkép

    Europa műholdkép

    Europa szinoptikus térkép

  • ELTE ELŐREJELZÉS (2 NAP LHBP)

    2 napos légnyomás előrejelzés Budapest LHBP

    2 napos szél előrejelzés Budapest LHBP

    2 napos termik trigger előrejelzés Budapest LHBP

    2 napos felhőzet előrejelzés Budapest LHBP

    2 napos thermal index profile előrejelzés Budapest LHBP

    2 napos átlag emelés előrejelzés Budapest LHBP

    2 napos felhő alap előrejelzés Budapest LHBP

    2 napos hőmérséklet advekció előrejelzés Budapest LHBP

  • VILLÁMRADAR

  • ELŐREJELZÉS

  • WINDFINDER ELŐREJELZÉS

  • RIASZTÁS - VÉSZJELZÉS

Repülésmeteorológia, aktuális időjárási helyzet és előrejelzés

Repülésmeteorológia, várható időjárás jelentések, előrejelzések és riasztások. METAR, TAF adatok, aktuális időjárás helyzetek és térképek.

A meteorológia kialakulásában és fejlődésében kiemelt szerep jutott a repülésnek, illetve a repülés technikai fejlődésének. A repülésmeteorológia elsődlegesen a repülés biztonságát, másodlagosan a repülés gazdaságosságát hivatott szolgálni. Eleinte a katonai repülőgépeknek, később a polgári repülésnek, ma már a sportrepülő pilótáknak, és a mezőgazdasági pilótáknak is egyaránt szükségük van a naprakész meteorológiai információkra.

Repülésmeteorológia oldalunkon összegyűjtöttük a legnépszerűbb és legjobb időjárás oldalak hivatkozásait, hogy repülés előtt vagy akár közben minden fontos forrást egyszerűen és gyorsan megtalálj. Magyarország várható időjárása, légállapoti diagramok, termik előrejelzés, METAR adatok, vészjelzések és figyelmeztetések. A képernyő szélén közvetlenül pedig pozíciód aktuális időjárási paramétereit is megtalálod.

JOGI NYILATKOZAT

Az oldal használatával a látogató elfogadja az alábbi felhasználási feltételeket:

Az oldalon feltüntetett repülésmeteorológia információkat mindenki csak saját felelősségre használhatja. A feltüntetett külső forrásokból származó információk pontosságáért és tartalmáért, valamint az esetlegesen ebből adódó bármilyen káresemény kapcsán a FLYTIME.HU nem vállal felelősséget!